メインページ
METAR-TAF:

METAR-TAF

空港 :

グロトン / ニューロンドン, コネチカット州, アメリカ合衆国

緯度: 41-19-39N, 経度: 072-02-58W, 海抜: 3m

現時点の気象観測

当レポートは7分前の05:56(UTC)に作成
北/北東の風 16kt、最大28ktの突風を伴う
気温 7°C
湿度 81%
気圧 1011 hPa
視程: 16.1km
高度2100ftの曇り

METAR: KGON 040556Z AUTO 03016G28KT 10SM OVC021 07/04 A2984 RMK AO2 PK WND 01028/0553 SLP105 T00720039 10083 20072 52011

時間: 02:03 (06:03 UTC)

予報

当レポートは43分前の05:20(UTC)に作成
予報は04日の 06時(UTC)から 05日の 06時(UTC)まで有効
北/北東の風 15kt、最大25ktの突風を伴う
視程: 10km
高度2000ftの曇り
04日の 0900時(UTC)から
北/北東の風 15kt、最大23ktの突風を伴う
視程: 10km
高度2000ftの曇り
04日の 1600時(UTC)から
北/北東の風 13kt、最大20ktの突風を伴う
視程: 10km
高度2500ftの曇り
04日の 2000時(UTC)から
北東の風 11kt
視程: 10km
高度3000ftの曇り
05日の 0000時(UTC)から
東/北東の風 7kt
視程: 10km
高度3500ftの千切れ雲あり

TAF: KGON 040520Z 0406/0506 02015G25KT P6SM OVC020 FM040900 02015G23KT P6SM OVC020 FM041600 03013G20KT P6SM OVC025 FM042000 05011KT P6SM OVC030 FM050000 06007KT P6SM BKN035

4,000以上の空港の気象観測と天気予報(METAR報とTAF報)

利用可能な観測所は地図上に黄色い丸と赤い丸で示す。

丸の上にカーソルを重ねると観測所名を参照できる。

次にクリックすると気象観測と天気予報を参照できる。

マップの切り替え:黒色「×」印の緑ボタンをクリックして拡大、「-」印の緑ボタンをクリックして縮小、緑色の三角印をクリックして隣りの地図に切り替え


METAR-TAF: